Time;durP1;ratioP1;P1;durP2;ratioP2;P2;SDS_P1;SDS_P2;PMS_P1;PMS_P2;Temp;Humidity;BMP_temperature;BMP_pressure;BME280_temperature;BME280_humidity;BME280_pressure;Samples;Min_cycle;Max_cycle;Signal;HPM_P1;HPM_P2
2023/10/07 00:02:15;;;;;;;18.85;4.30;;;17.30;99.90;;;;;;5052164;28;20091;-59
2023/10/07 00:04:44;;;;;;;17.70;4.82;;;17.30;99.90;;;;;;5052198;28;20044;-59
2023/10/07 00:07:10;;;;;;;17.75;5.65;;;17.30;99.90;;;;;;5052285;28;20044;-59
2023/10/07 00:09:43;;;;;;;16.30;4.45;;;17.40;99.90;;;;;;5052319;28;20045;-59
2023/10/07 00:12:14;;;;;;;15.18;4.45;;;17.50;99.90;;;;;;5052242;28;20039;-59
2023/10/07 00:14:43;;;;;;;17.33;4.82;;;17.40;99.90;;;;;;5051278;28;20087;-59
2023/10/07 00:17:29;;;;;;;17.67;4.32;;;17.40;99.90;;;;;;5052399;28;20052;-59
2023/10/07 00:19:55;;;;;;;18.95;5.15;;;17.50;99.90;;;;;;5052341;28;20072;-59
2023/10/07 00:22:20;;;;;;;15.40;4.40;;;17.50;99.90;;;;;;5052212;28;20044;-59
2023/10/07 00:24:48;;;;;;;12.65;4.00;;;17.50;99.90;;;;;;5052109;28;20041;-47
2023/10/07 00:27:27;;;;;;;16.63;4.30;;;17.50;99.90;;;;;;5052031;28;20045;-49
2023/10/07 00:29:59;;;;;;;14.73;4.47;;;17.30;99.90;;;;;;5052212;28;20045;-48
2023/10/07 00:32:28;;;;;;;18.13;4.90;;;17.20;99.90;;;;;;5050555;28;20037;-47
2023/10/07 00:34:59;;;;;;;16.65;4.47;;;17.20;99.90;;;;;;5051690;28;20570;-46
2023/10/07 00:37:26;;;;;;;13.52;4.38;;;17.10;99.90;;;;;;5050572;28;20036;-45
2023/10/07 00:39:53;;;;;;;17.05;4.63;;;17.10;99.90;;;;;;5051751;28;20055;-46
2023/10/07 00:42:19;;;;;;;14.88;4.72;;;17.00;99.90;;;;;;5051988;28;20045;-44
2023/10/07 00:44:52;;;;;;;19.35;5.40;;;17.00;99.90;;;;;;5051678;28;20045;-46
2023/10/07 00:47:20;;;;;;;15.25;4.13;;;17.10;99.90;;;;;;5051923;28;20053;-46
2023/10/07 00:55:18;;;;;;;18.77;4.78;;;16.90;99.90;;;;;;5043060;28;20049;-45
2023/10/07 00:57:52;;;;;;;15.82;4.57;;;16.80;99.90;;;;;;5051609;28;20417;-45
2023/10/07 01:02:52;;;;;;;14.02;4.65;;;16.60;99.90;;;;;;5051713;28;20371;-47
2023/10/07 01:05:32;;;;;;;19.40;5.03;;;16.80;99.90;;;;;;5051481;28;20049;-46
2023/10/07 01:07:58;;;;;;;16.00;4.70;;;16.80;99.90;;;;;;5051912;28;20120;-47
2023/10/07 01:10:27;;;;;;;15.13;4.90;;;16.80;99.90;;;;;;5051624;28;20124;-48
2023/10/07 01:12:59;;;;;;;14.07;4.32;;;16.70;99.90;;;;;;5051531;28;20120;-45
2023/10/07 01:15:26;;;;;;;15.52;4.97;;;16.60;99.90;;;;;;5051501;28;20044;-50
2023/10/07 01:17:57;;;;;;;18.58;4.93;;;16.60;99.90;;;;;;5051461;28;20045;-45
2023/10/07 01:20:34;;;;;;;15.93;4.75;;;16.80;99.90;;;;;;5051484;28;20045;-46
2023/10/07 01:23:04;;;;;;;17.98;4.78;;;16.60;99.90;;;;;;5051480;28;20049;-46
2023/10/07 01:25:44;;;;;;;14.88;4.00;;;16.90;99.90;;;;;;5053271;28;20053;-48
2023/10/07 01:28:14;;;;;;;16.00;4.68;;;16.90;99.90;;;;;;5055204;28;20083;-45
2023/10/07 01:30:47;;;;;;;11.65;4.40;;;16.80;99.90;;;;;;5055314;28;20041;-48
2023/10/07 01:36:05;;;;;;;17.83;4.78;;;16.90;99.90;;;;;;5055280;28;20037;-45
2023/10/07 01:38:31;;;;;;;15.00;4.50;;;16.90;99.90;;;;;;5054785;28;20080;-46
2023/10/07 01:41:06;;;;;;;13.98;4.03;;;17.10;99.90;;;;;;5055169;28;20059;-44
2023/10/07 01:43:39;;;;;;;11.40;3.58;;;17.00;99.90;;;;;;5071269;28;20058;-48
2023/10/07 01:46:10;;;;;;;14.32;4.57;;;17.00;99.90;;;;;;5073582;28;20048;-49
2023/10/07 01:48:37;;;;;;;13.02;3.92;;;17.20;99.90;;;;;;5074554;28;20044;-48
2023/10/07 01:51:05;;;;;;;15.05;3.70;;;17.10;99.90;;;;;;5074753;28;20036;-46
2023/10/07 01:53:32;;;;;;;13.93;4.05;;;17.30;99.90;;;;;;5074866;28;20036;-50
2023/10/07 01:55:58;;;;;;;22.80;5.30;;;17.20;99.90;;;;;;5074666;28;20048;-44
2023/10/07 01:58:25;;;;;;;14.15;3.65;;;17.20;99.90;;;;;;5074696;28;20371;-47
2023/10/07 02:00:57;;;;;;;22.13;4.22;;;17.30;99.90;;;;;;5074543;28;20481;-44
2023/10/07 02:03:23;;;;;;;13.50;3.90;;;17.30;99.90;;;;;;5074750;28;20397;-47
2023/10/07 02:05:50;;;;;;;17.00;4.28;;;17.40;99.90;;;;;;5074602;28;20067;-47
2023/10/07 02:08:20;;;;;;;16.20;3.55;;;17.40;99.90;;;;;;5074275;28;20075;-45
2023/10/07 02:10:48;;;;;;;16.73;3.75;;;17.40;99.90;;;;;;5074387;28;20044;-46
2023/10/07 02:13:19;;;;;;;15.60;4.18;;;17.40;99.90;;;;;;5074254;28;20380;-47
2023/10/07 02:15:48;;;;;;;16.98;3.90;;;17.40;99.90;;;;;;5074293;28;20036;-46
2023/10/07 02:18:17;;;;;;;10.80;3.85;;;17.30;99.90;;;;;;5073337;28;20040;-46
2023/10/07 02:21:06;;;;;;;13.05;3.90;;;17.30;99.90;;;;;;5073132;28;20047;-46
2023/10/07 02:23:37;;;;;;;16.58;4.30;;;17.40;99.90;;;;;;5074467;28;20044;-45
2023/10/07 02:26:07;;;;;;;15.85;4.03;;;17.40;99.90;;;;;;5074308;28;20388;-46
2023/10/07 02:28:36;;;;;;;12.52;3.67;;;17.40;99.90;;;;;;5074067;28;20044;-46
2023/10/07 02:31:07;;;;;;;13.27;3.72;;;17.50;99.90;;;;;;5074063;28;20047;-45
2023/10/07 02:33:43;;;;;;;15.63;3.85;;;17.50;99.90;;;;;;5073672;28;20048;-47
2023/10/07 02:36:21;;;;;;;16.02;3.97;;;17.50;99.90;;;;;;5073570;28;20071;-46
2023/10/07 02:38:52;;;;;;;16.83;4.05;;;17.40;99.90;;;;;;5073913;28;20190;-48
2023/10/07 02:41:19;;;;;;;14.30;4.55;;;17.30;99.90;;;;;;5073778;28;20086;-47
2023/10/07 02:43:49;;;;;;;16.45;4.30;;;17.40;99.90;;;;;;5073750;28;20064;-45
2023/10/07 02:46:39;;;;;;;17.65;4.13;;;17.40;99.90;;;;;;5072190;28;20450;-49
2023/10/07 02:49:05;;;;;;;14.02;3.88;;;17.40;99.90;;;;;;5073116;28;20396;-49
2023/10/07 02:51:55;;;;;;;12.20;3.22;;;17.40;99.90;;;;;;5073990;28;20036;-47
2023/10/07 02:54:32;;;;;;;15.30;3.97;;;17.40;99.90;;;;;;5072395;28;20489;-45
2023/10/07 02:57:08;;;;;;;18.60;3.63;;;17.40;99.90;;;;;;5072067;28;20048;-45
2023/10/07 02:59:35;;;;;;;19.02;4.88;;;17.40;99.90;;;;;;5073764;28;20044;-45
2023/10/07 03:02:12;;;;;;;16.75;3.60;;;17.40;99.90;;;;;;5073516;28;20048;-46
2023/10/07 03:07:41;;;;;;;18.02;3.97;;;17.40;99.90;;;;;;5073080;28;20057;-45
2023/10/07 03:10:16;;;;;;;21.27;3.88;;;17.30;99.90;;;;;;5073149;28;20036;-46
2023/10/07 03:12:56;;;;;;;21.20;4.40;;;17.30;99.90;;;;;;5073177;28;20056;-49
2023/10/07 03:18:03;;;;;;;13.77;4.35;;;17.40;99.90;;;;;;5073117;28;20044;-50
2023/10/07 03:20:31;;;;;;;16.30;4.25;;;17.30;99.90;;;;;;5073153;28;20045;-48
2023/10/07 03:23:25;;;;;;;15.68;3.45;;;17.30;99.90;;;;;;5073032;28;20049;-48
2023/10/07 03:28:25;;;;;;;17.13;4.22;;;17.40;99.90;;;;;;5072859;28;20048;-48
2023/10/07 03:30:51;;;;;;;16.02;3.78;;;17.30;99.90;;;;;;5073102;28;20043;-49
2023/10/07 03:33:43;;;;;;;18.55;4.43;;;17.30;99.90;;;;;;5072709;28;20028;-45
2023/10/07 03:36:16;;;;;;;;;;;17.40;99.90;;;;;;5073407;28;20052;-46
2023/10/07 03:38:43;;;;;;;17.70;3.58;;;17.40;99.90;;;;;;5072940;28;19956;-46
2023/10/07 03:41:09;;;;;;;14.57;4.55;;;17.30;99.90;;;;;;5072498;28;20058;-47
2023/10/07 03:43:35;;;;;;;16.52;3.70;;;17.40;99.90;;;;;;5071213;28;20082;-47
2023/10/07 03:46:01;;;;;;;16.27;4.22;;;17.30;99.90;;;;;;5072429;28;20530;-45
2023/10/07 03:48:33;;;;;;;15.55;3.45;;;17.40;99.90;;;;;;5072404;28;20048;-45
2023/10/07 03:51:05;;;;;;;13.48;3.42;;;17.30;99.90;;;;;;5072378;28;20040;-45
2023/10/07 03:53:44;;;;;;;14.10;4.03;;;17.30;99.90;;;;;;5072409;28;20087;-45
2023/10/07 03:56:11;;;;;;;14.88;3.60;;;17.30;99.90;;;;;;5072564;28;20044;-45
2023/10/07 03:58:37;;;;;;;13.25;3.63;;;17.40;99.90;;;;;;5072326;28;20047;-45
2023/10/07 04:01:17;;;;;;;13.30;4.25;;;17.30;99.90;;;;;;5072263;28;20109;-45
2023/10/07 04:03:48;;;;;;;16.85;4.70;;;17.40;99.90;;;;;;5072492;28;20097;-46
2023/10/07 04:06:17;;;;;;;21.45;4.63;;;17.30;99.90;;;;;;5071195;28;20131;-47
2023/10/07 04:08:54;;;;;;;14.32;3.67;;;17.20;99.90;;;;;;5072070;28;20044;-45
2023/10/07 04:11:25;;;;;;;15.13;4.00;;;17.30;99.90;;;;;;5071210;28;20044;-46
2023/10/07 04:13:53;;;;;;;15.43;4.07;;;17.30;99.90;;;;;;5072206;28;20055;-46
2023/10/07 04:16:23;;;;;;;13.82;4.22;;;17.20;99.90;;;;;;5072052;28;20076;-45
2023/10/07 04:19:06;;;;;;;16.35;4.20;;;17.30;99.90;;;;;;5072231;28;20114;-46
2023/10/07 04:21:41;;;;;;;16.85;3.72;;;17.20;99.90;;;;;;5072130;28;20105;-44
2023/10/07 04:24:11;;;;;;;17.20;4.22;;;17.20;99.90;;;;;;5070673;28;20052;-47
2023/10/07 04:26:41;;;;;;;18.80;4.43;;;17.20;99.90;;;;;;5070627;28;20397;-46
2023/10/07 04:29:21;;;;;;;16.75;4.40;;;17.20;99.90;;;;;;5071959;28;20085;-46
2023/10/07 04:31:51;;;;;;;17.10;4.47;;;17.20;99.90;;;;;;5072141;28;20412;-46
2023/10/07 04:34:24;;;;;;;17.77;5.05;;;17.20;99.90;;;;;;5071917;28;20062;-45
2023/10/07 04:39:39;;;;;;;20.70;4.35;;;17.30;99.90;;;;;;5071778;28;20508;-47
2023/10/07 04:42:06;;;;;;;21.92;4.05;;;17.30;99.90;;;;;;5072010;28;20044;-49
2023/10/07 04:47:27;;;;;;;13.40;4.05;;;17.20;99.90;;;;;;5071659;28;20520;-47
2023/10/07 04:52:51;;;;;;;17.85;5.22;;;17.20;99.90;;;;;;5066587;28;20048;-48
2023/10/07 04:55:25;;;;;;;19.30;4.05;;;17.30;99.90;;;;;;5070353;28;20037;-45
2023/10/07 05:03:16;;;;;;;12.52;3.80;;;17.20;99.90;;;;;;5075401;28;20562;-47
2023/10/07 05:05:45;;;;;;;12.80;3.60;;;17.20;99.90;;;;;;5075537;28;20048;-45
2023/10/07 05:08:17;;;;;;;16.42;4.00;;;17.20;99.90;;;;;;5075712;28;20045;-48
2023/10/07 05:10:50;;;;;;;16.58;3.65;;;17.10;99.90;;;;;;5075656;28;20048;-45
2023/10/07 05:13:16;;;;;;;20.20;4.18;;;17.20;99.90;;;;;;5075579;28;20041;-45
2023/10/07 05:15:42;;;;;;;18.88;4.00;;;17.10;99.90;;;;;;5075521;28;20040;-46
2023/10/07 05:18:12;;;;;;;20.30;4.43;;;17.20;99.90;;;;;;5075353;28;20114;-45
2023/10/07 05:20:42;;;;;;;15.05;3.70;;;17.10;99.90;;;;;;5075140;28;20496;-45
2023/10/07 05:23:09;;;;;;;16.15;4.20;;;17.20;99.90;;;;;;5075160;28;20040;-46
2023/10/07 05:25:38;;;;;;;16.23;4.03;;;17.10;99.90;;;;;;5075213;28;20102;-46
2023/10/07 05:28:11;;;;;;;16.40;4.15;;;17.10;99.90;;;;;;5073642;28;20056;-45
2023/10/07 05:30:50;;;;;;;17.20;3.80;;;17.20;99.90;;;;;;5075018;28;20041;-48
2023/10/07 05:33:20;;;;;;;13.55;3.00;;;17.20;99.90;;;;;;5074957;28;20043;-46
2023/10/07 05:35:49;;;;;;;16.60;3.42;;;17.20;99.90;;;;;;5075260;28;20040;-49
2023/10/07 05:38:19;;;;;;;14.15;3.70;;;17.20;99.90;;;;;;5074938;28;20045;-47
2023/10/07 05:40:47;;;;;;;16.75;3.78;;;17.20;99.90;;;;;;5074844;28;20484;-45
2023/10/07 05:43:13;;;;;;;18.23;3.53;;;17.20;99.90;;;;;;5074951;28;20120;-49
2023/10/07 05:45:40;;;;;;;13.60;3.63;;;17.20;99.90;;;;;;5074940;28;20120;-45
2023/10/07 05:48:08;;;;;;;13.93;3.65;;;17.10;99.90;;;;;;5074699;28;20044;-44
2023/10/07 05:50:34;;;;;;;12.27;3.75;;;17.10;99.90;;;;;;5074956;28;20033;-48
2023/10/07 05:53:05;;;;;;;15.35;3.28;;;17.00;99.90;;;;;;5074620;28;20033;-45
2023/10/07 05:55:31;;;;;;;15.38;3.35;;;17.00;99.90;;;;;;5074682;28;20079;-46
2023/10/07 05:57:58;;;;;;;16.75;3.53;;;17.00;99.90;;;;;;5073477;28;20464;-45
2023/10/07 06:00:25;;;;;;;11.23;3.22;;;17.00;99.90;;;;;;5072579;28;20048;-49
2023/10/07 06:02:52;;;;;;;17.48;3.33;;;17.00;99.90;;;;;;5073942;28;20051;-45
2023/10/07 06:05:20;;;;;;;13.70;3.40;;;16.90;99.90;;;;;;5073867;28;20045;-47
2023/10/07 06:07:46;;;;;;;14.70;3.78;;;16.80;99.90;;;;;;5073801;28;20079;-46
2023/10/07 06:10:12;;;;;;;13.55;3.33;;;16.80;99.90;;;;;;5055463;28;20048;-46
2023/10/07 06:12:37;;;;;;;11.40;3.50;;;16.90;99.90;;;;;;5072141;28;20040;-48
2023/10/07 06:15:08;;;;;;;12.80;3.15;;;16.80;99.90;;;;;;5072920;28;20064;-47
2023/10/07 06:17:35;;;;;;;14.23;3.60;;;16.90;99.90;;;;;;5073185;28;20079;-46
2023/10/07 06:20:14;;;;;;;14.00;4.00;;;16.90;99.90;;;;;;5073443;28;20393;-45
2023/10/07 06:22:45;;;;;;;13.40;3.72;;;16.80;99.90;;;;;;5073293;28;20037;-45
2023/10/07 06:25:15;;;;;;;17.17;4.53;;;16.70;99.90;;;;;;5073228;28;20080;-48
2023/10/07 06:27:43;;;;;;;14.65;5.15;;;16.70;99.90;;;;;;5073283;28;20174;-46
2023/10/07 06:30:19;;;;;;;14.70;4.45;;;16.70;99.90;;;;;;5072988;28;20040;-46
2023/10/07 06:32:45;;;;;;;12.18;4.13;;;16.70;99.90;;;;;;5073242;28;20040;-46
2023/10/07 06:35:21;;;;;;;16.65;4.47;;;16.80;99.90;;;;;;5072982;28;20056;-45
2023/10/07 06:37:48;;;;;;;15.35;4.00;;;16.90;99.90;;;;;;5073372;28;20049;-45
2023/10/07 06:40:28;;;;;;;19.88;4.50;;;16.70;99.90;;;;;;5072925;28;20036;-46
2023/10/07 06:43:01;;;;;;;15.05;4.20;;;16.70;99.90;;;;;;5072984;28;20044;-45
2023/10/07 06:45:38;;;;;;;14.13;4.00;;;16.80;99.90;;;;;;5071430;28;20115;-46
2023/10/07 06:48:08;;;;;;;17.00;4.30;;;16.80;99.90;;;;;;5072994;28;20626;-46
2023/10/07 06:50:34;;;;;;;15.43;4.13;;;16.70;99.90;;;;;;5071307;28;20040;-46
2023/10/07 06:53:00;;;;;;;17.50;4.32;;;16.80;99.90;;;;;;5072950;28;20036;-44
2023/10/07 06:55:35;;;;;;;13.70;3.92;;;16.80;99.90;;;;;;5072671;28;20043;-46
2023/10/07 06:58:03;;;;;;;14.93;3.78;;;16.80;99.90;;;;;;5072814;28;20040;-47
2023/10/07 07:00:46;;;;;;;14.90;3.60;;;16.90;99.90;;;;;;5072676;28;20123;-49
2023/10/07 07:03:18;;;;;;;13.68;3.97;;;16.90;99.90;;;;;;5072886;28;20045;-48
2023/10/07 07:05:48;;;;;;;15.55;3.88;;;16.90;99.90;;;;;;5072687;28;20036;-46
2023/10/07 07:08:22;;;;;;;11.77;3.10;;;16.90;99.90;;;;;;5072538;28;20116;-46
2023/10/07 07:10:55;;;;;;;11.13;3.30;;;16.80;99.90;;;;;;5072372;28;20049;-46
2023/10/07 07:13:27;;;;;;;17.55;4.38;;;16.80;99.90;;;;;;5072592;28;20040;-45
2023/10/07 07:15:57;;;;;;;;;;;16.90;99.90;;;;;;5072957;28;20124;-48
2023/10/07 07:18:25;;;;;;;20.55;4.43;;;17.00;99.90;;;;;;5072405;28;19995;-46
2023/10/07 07:23:24;;;;;;;19.67;4.78;;;17.00;99.90;;;;;;5072109;28;20461;-47
2023/10/07 07:26:06;;;;;;;16.38;4.38;;;16.90;99.90;;;;;;5070555;28;20044;-46
2023/10/07 07:28:33;;;;;;;14.93;3.67;;;17.00;99.90;;;;;;5071882;28;20110;-47
2023/10/07 07:30:59;;;;;;;11.30;3.60;;;17.00;99.90;;;;;;5070927;28;20186;-47
2023/10/07 07:33:34;;;;;;;11.45;3.40;;;17.00;99.90;;;;;;5071829;28;20056;-49
2023/10/07 07:36:06;;;;;;;17.48;3.92;;;17.00;99.90;;;;;;5071832;28;20076;-46
2023/10/07 07:38:43;;;;;;;15.25;3.88;;;17.10;99.90;;;;;;5071654;28;20048;-48
2023/10/07 07:41:09;;;;;;;13.90;3.67;;;17.20;99.90;;;;;;5071642;28;20045;-48
2023/10/07 07:43:37;;;;;;;11.65;3.60;;;17.30;99.90;;;;;;5071634;28;20408;-47
2023/10/07 07:46:18;;;;;;;16.48;3.83;;;17.30;99.90;;;;;;5071765;28;20055;-49
2023/10/07 07:48:48;;;;;;;12.18;3.53;;;17.40;99.90;;;;;;5068343;28;20040;-46
2023/10/07 07:51:18;;;;;;;11.95;2.95;;;17.40;99.90;;;;;;5058571;28;20044;-48
2023/10/07 07:53:44;;;;;;;14.27;3.95;;;17.50;99.90;;;;;;5059588;28;20032;-59
2023/10/07 07:56:13;;;;;;;11.93;3.38;;;17.50;99.90;;;;;;5060130;28;20036;-59
2023/10/07 07:58:41;;;;;;;12.27;3.20;;;17.60;99.90;;;;;;5066492;28;20033;-59
2023/10/07 08:01:18;;;;;;;12.50;3.50;;;17.50;99.90;;;;;;5070983;28;20137;-59
2023/10/07 08:03:44;;;;;;;12.30;3.63;;;17.60;99.90;;;;;;5071583;28;20044;-59
2023/10/07 08:06:12;;;;;;;13.60;3.38;;;17.60;99.90;;;;;;5069974;28;20051;-59
2023/10/07 08:08:39;;;;;;;10.90;3.45;;;17.60;99.90;;;;;;5069963;28;20044;-58
2023/10/07 08:11:05;;;;;;;12.95;3.22;;;17.60;99.90;;;;;;5071336;28;20037;-59
2023/10/07 08:13:31;;;;;;;10.60;3.47;;;17.60;99.90;;;;;;5069599;28;20048;-59
2023/10/07 08:16:05;;;;;;;16.90;3.90;;;17.60;99.90;;;;;;5071077;28;20039;-59
2023/10/07 08:18:31;;;;;;;16.50;3.72;;;17.60;99.90;;;;;;5069756;28;20051;-59
2023/10/07 08:21:07;;;;;;;15.13;4.03;;;17.60;99.90;;;;;;5071142;28;20075;-59
2023/10/07 08:23:36;;;;;;;13.15;3.45;;;17.60;99.90;;;;;;5071350;28;20090;-59
2023/10/07 08:26:12;;;;;;;15.30;3.60;;;17.60;99.90;;;;;;5069940;28;20465;-59
2023/10/07 08:28:45;;;;;;;13.40;3.30;;;17.60;99.90;;;;;;5071347;28;20129;-59
2023/10/07 08:31:58;;;;;;;11.13;3.83;;;17.60;99.90;;;;;;5071127;28;20476;-59
2023/10/07 08:36:36;;;;;;;17.17;3.60;;;17.60;99.90;;;;;;5070712;28;20049;-59
2023/10/07 08:39:06;;;;;;;12.68;4.18;;;17.70;99.90;;;;;;5070607;28;20409;-59
2023/10/07 08:41:32;;;;;;;15.52;4.15;;;17.80;99.90;;;;;;5070856;28;20099;-59
2023/10/07 08:44:13;;;;;;;11.93;3.42;;;17.80;99.90;;;;;;5070858;28;20044;-59
2023/10/07 08:46:52;;;;;;;15.90;3.72;;;17.80;99.90;;;;;;5067459;28;20111;-59
2023/10/07 08:49:26;;;;;;;18.13;3.85;;;17.80;99.90;;;;;;5061425;28;20041;-59
2023/10/07 08:51:54;;;;;;;16.13;3.70;;;17.80;99.90;;;;;;5070834;28;20048;-59
2023/10/07 08:54:27;;;;;;;15.57;3.60;;;17.80;99.90;;;;;;5070857;28;20031;-58
2023/10/07 08:56:58;;;;;;;16.83;4.35;;;17.80;99.90;;;;;;5071211;28;20116;-59
2023/10/07 08:59:30;;;;;;;12.13;3.97;;;17.70;99.90;;;;;;5070761;28;20044;-59
2023/10/07 09:02:00;;;;;;;18.25;5.68;;;17.80;99.90;;;;;;5070844;28;20489;-59
2023/10/07 09:04:33;;;;;;;17.88;4.13;;;17.80;99.90;;;;;;5070820;28;20043;-59
2023/10/07 09:07:08;;;;;;;15.32;4.10;;;17.70;99.90;;;;;;5070946;28;20044;-59
2023/10/07 09:09:38;;;;;;;12.88;3.22;;;17.80;99.90;;;;;;5070858;28;20043;-59
2023/10/07 09:12:14;;;;;;;18.85;4.00;;;17.80;99.90;;;;;;5070832;28;20058;-59
2023/10/07 09:14:57;;;;;;;13.82;4.13;;;17.80;99.90;;;;;;5070674;28;20076;-59
2023/10/07 09:17:29;;;;;;;14.77;4.40;;;17.80;99.90;;;;;;5064988;28;20126;-59
2023/10/07 09:19:58;;;;;;;14.88;3.78;;;17.90;99.90;;;;;;5049368;28;20048;-59
2023/10/07 09:22:35;;;;;;;20.70;4.10;;;17.90;99.90;;;;;;5050497;28;20070;-59
2023/10/07 09:25:17;;;;;;;16.75;4.22;;;17.90;99.90;;;;;;5049649;28;20045;-59
2023/10/07 09:27:54;;;;;;;14.25;4.30;;;17.90;99.90;;;;;;5051299;28;20042;-59
2023/10/07 09:33:21;;;;;;;21.25;5.40;;;17.90;99.90;;;;;;5051578;28;20052;-59
2023/10/07 09:38:41;;;;;;;21.20;4.88;;;17.90;97.70;;;;;;5051280;28;20441;-59
2023/10/07 09:41:23;;;;;;;15.23;3.60;;;17.80;99.90;;;;;;5049854;28;20080;-59
2023/10/07 09:43:57;;;;;;;18.58;4.78;;;17.80;99.90;;;;;;5051253;28;20553;-59
2023/10/07 09:46:27;;;;;;;16.23;3.97;;;17.80;98.40;;;;;;5052422;28;20045;-59
2023/10/07 09:48:59;;;;;;;15.60;4.53;;;17.90;99.90;;;;;;5054574;28;20049;-59
2023/10/07 09:51:47;;;;;;;14.63;5.18;;;17.90;99.90;;;;;;5061852;28;20032;-59
2023/10/07 09:54:36;;;;;;;15.32;3.97;;;17.90;96.80;;;;;;5074050;28;20079;-59
2023/10/07 09:57:42;;;;;;;14.40;4.57;;;17.90;90.80;;;;;;5074642;28;20322;-59
2023/10/07 10:03:14;;;;;;;14.02;4.47;;;17.90;84.80;;;;;;5064170;28;20052;-59
2023/10/07 10:05:58;;;;;;;14.32;4.10;;;17.90;74.40;;;;;;5063966;28;20075;-59
2023/10/07 10:08:36;;;;;;;17.27;4.32;;;18.00;69.90;;;;;;5059655;28;20393;-59
2023/10/07 10:11:19;;;;;;;16.48;4.28;;;18.00;72.00;;;;;;5069379;28;20036;-59
2023/10/07 10:16:44;;;;;;;12.63;4.60;;;18.10;54.80;;;;;;5053632;28;20109;-59
2023/10/07 10:19:37;;;;;;;14.02;4.20;;;18.10;56.10;;;;;;5053961;28;20428;-59
2023/10/07 10:22:10;;;;;;;15.73;4.97;;;18.10;61.80;;;;;;5054201;28;20068;-57
2023/10/07 10:24:42;;;;;;;11.88;4.15;;;18.10;59.80;;;;;;5053787;28;20397;-59
2023/10/07 10:27:17;;;;;;;19.25;4.68;;;18.10;52.50;;;;;;5064516;28;20047;-58
2023/10/07 10:30:03;;;;;;;15.23;4.20;;;18.10;50.20;;;;;;5073807;28;20479;-59
2023/10/07 10:32:29;;;;;;;14.20;4.72;;;18.10;53.20;;;;;;5074223;28;20041;-59
2023/10/07 10:34:59;;;;;;;15.13;4.10;;;18.10;48.10;;;;;;5073602;28;20056;-59
2023/10/07 10:37:26;;;;;;;13.50;4.22;;;18.10;54.70;;;;;;5072451;28;20135;-59
2023/10/07 10:39:54;;;;;;;16.13;5.47;;;18.10;52.90;;;;;;5073447;28;20538;-59
2023/10/07 10:42:21;;;;;;;16.95;3.88;;;18.20;52.10;;;;;;5070590;28;20048;-59
2023/10/07 10:44:48;;;;;;;14.45;4.45;;;18.20;49.30;;;;;;5073656;28;20417;-60
2023/10/07 10:47:18;;;;;;;12.45;4.40;;;18.30;54.20;;;;;;5073382;28;20118;-59
2023/10/07 10:49:44;;;;;;;15.45;4.78;;;18.30;49.40;;;;;;5073413;28;20092;-60
2023/10/07 10:52:11;;;;;;;13.35;4.47;;;18.20;51.60;;;;;;5073723;28;20032;-59
2023/10/07 10:54:39;;;;;;;14.82;4.20;;;18.20;47.00;;;;;;5073496;28;20045;-58
2023/10/07 10:57:07;;;;;;;12.57;3.83;;;18.10;36.00;;;;;;5073351;28;20043;-59
2023/10/07 10:59:47;;;;;;;12.60;3.92;;;18.10;43.50;;;;;;5071512;28;20044;-59
2023/10/07 11:02:23;;;;;;;12.98;4.28;;;18.20;47.50;;;;;;5072949;28;20044;-60
2023/10/07 11:04:54;;;;;;;19.95;4.50;;;18.10;37.20;;;;;;5072302;28;20045;-60
2023/10/07 11:07:21;;;;;;;15.75;4.13;;;18.10;42.10;;;;;;5055296;28;20120;-59
2023/10/07 11:09:48;;;;;;;19.55;5.00;;;18.10;40.70;;;;;;5073249;28;20552;-59
2023/10/07 11:12:16;;;;;;;15.80;4.47;;;18.10;40.40;;;;;;5072826;28;20029;-59
2023/10/07 11:14:44;;;;;;;14.10;3.90;;;18.10;42.60;;;;;;5073377;28;20041;-59
2023/10/07 11:17:12;;;;;;;19.85;5.25;;;18.10;42.00;;;;;;5073086;28;20075;-60
2023/10/07 11:19:47;;;;;;;16.33;4.43;;;18.10;39.60;;;;;;5073196;28;20323;-59
2023/10/07 11:22:14;;;;;;;14.05;4.57;;;18.10;42.80;;;;;;5072743;28;20049;-59
2023/10/07 11:24:39;;;;;;;16.52;4.18;;;18.10;45.90;;;;;;5072799;28;20076;-59
2023/10/07 11:27:08;;;;;;;16.73;4.60;;;18.00;44.50;;;;;;5069173;28;20072;-59
2023/10/07 11:29:35;;;;;;;14.38;4.28;;;18.10;51.00;;;;;;5061456;28;20484;-59
2023/10/07 11:32:08;;;;;;;16.55;5.15;;;18.00;48.40;;;;;;5062964;28;20072;-59
2023/10/07 11:34:38;;;;;;;15.82;4.03;;;17.90;48.10;;;;;;5061464;28;20413;-59
2023/10/07 11:37:13;;;;;;;12.98;4.38;;;17.90;52.10;;;;;;5061944;28;20049;-59
2023/10/07 11:39:44;;;;;;;14.07;4.22;;;17.90;44.80;;;;;;5061510;28;20115;-60
2023/10/07 11:42:21;;;;;;;19.23;3.57;;;18.00;44.80;;;;;;5061881;28;20433;-59
2023/10/07 11:44:53;;;;;;;14.32;5.60;;;18.00;48.70;;;;;;5062129;28;20060;-59
2023/10/07 11:47:19;;;;;;;15.60;4.45;;;18.00;50.80;;;;;;5061152;28;20373;-60
2023/10/07 11:49:48;;;;;;;16.83;5.47;;;18.10;40.70;;;;;;5062536;28;20035;-59
2023/10/07 11:52:19;;;;;;;15.57;4.00;;;18.20;45.40;;;;;;5055324;28;20045;-60
2023/10/07 11:54:45;;;;;;;14.80;4.32;;;18.30;41.20;;;;;;5052025;28;20108;-59
2023/10/07 11:57:12;;;;;;;18.27;4.47;;;18.30;40.70;;;;;;5070883;28;20516;-59
2023/10/07 11:59:41;;;;;;;10.90;4.15;;;18.20;42.50;;;;;;5072413;28;20041;-59
2023/10/07 12:02:11;;;;;;;12.50;4.22;;;18.20;42.30;;;;;;5071637;28;20093;-59
2023/10/07 12:04:57;;;;;;;15.13;4.00;;;18.20;48.00;;;;;;5071626;28;20595;-60
2023/10/07 12:07:23;;;;;;;13.07;3.85;;;18.10;43.40;;;;;;5071696;28;20040;-59
2023/10/07 12:09:51;;;;;;;17.90;4.82;;;18.00;50.50;;;;;;5071615;28;20033;-60
2023/10/07 12:12:17;;;;;;;15.45;4.60;;;18.00;46.60;;;;;;5072441;28;20071;-60
2023/10/07 12:14:43;;;;;;;15.93;4.70;;;18.00;47.40;;;;;;5072491;28;20055;-60
2023/10/07 12:17:09;;;;;;;14.00;4.47;;;18.00;47.10;;;;;;5072272;28;20401;-60
2023/10/07 12:19:36;;;;;;;17.05;5.32;;;18.10;50.50;;;;;;5072284;28;20036;-59
2023/10/07 12:22:06;;;;;;;17.02;4.28;;;18.00;50.60;;;;;;5072299;28;20507;-59
2023/10/07 12:24:35;;;;;;;15.30;4.22;;;18.00;49.10;;;;;;5071985;28;20477;-59
2023/10/07 12:27:01;;;;;;;13.85;4.32;;;18.00;47.50;;;;;;5070613;28;20048;-59
2023/10/07 12:29:28;;;;;;;15.70;4.30;;;18.10;50.90;;;;;;5071937;28;20107;-60
2023/10/07 12:31:54;;;;;;;14.82;4.72;;;18.10;49.90;;;;;;5071957;28;20044;-60
2023/10/07 12:34:20;;;;;;;16.25;4.78;;;18.10;43.00;;;;;;5071803;28;20048;-59
2023/10/07 12:36:47;;;;;;;15.85;4.60;;;18.20;51.60;;;;;;5071983;28;20605;-59
2023/10/07 12:39:14;;;;;;;14.93;4.35;;;18.10;48.10;;;;;;5072098;28;20044;-59
2023/10/07 12:41:43;;;;;;;15.10;4.28;;;18.10;49.80;;;;;;5072061;28;20040;-59
2023/10/07 12:44:10;;;;;;;14.52;4.50;;;18.00;53.90;;;;;;5072142;28;20446;-60
2023/10/07 12:46:40;;;;;;;16.50;4.28;;;18.10;64.80;;;;;;5072095;28;20051;-59
2023/10/07 12:49:10;;;;;;;13.63;4.07;;;18.10;69.90;;;;;;5071626;28;20552;-60
2023/10/07 12:51:42;;;;;;;18.08;4.30;;;18.10;69.40;;;;;;5071822;28;20119;-59
2023/10/07 12:54:11;;;;;;;14.63;4.75;;;18.00;70.30;;;;;;5071351;28;20119;-59
2023/10/07 12:56:43;;;;;;;15.50;4.72;;;18.00;76.60;;;;;;5069776;28;20132;-60
2023/10/07 12:59:18;;;;;;;14.90;4.40;;;17.90;72.90;;;;;;5061599;28;20068;-59
2023/10/07 13:01:51;;;;;;;19.33;4.72;;;17.90;79.70;;;;;;5060659;28;20037;-60
2023/10/07 13:04:25;;;;;;;16.52;4.75;;;17.80;80.00;;;;;;5059832;28;20041;-60
2023/10/07 13:07:00;;;;;;;17.75;4.85;;;17.70;80.10;;;;;;5059185;28;20029;-59
2023/10/07 13:09:33;;;;;;;15.13;4.80;;;17.70;81.20;;;;;;5060010;28;20024;-59
2023/10/07 13:12:00;;;;;;;13.25;4.93;;;17.70;85.90;;;;;;5058765;28;20547;-59
2023/10/07 13:14:28;;;;;;;13.10;5.07;;;17.70;87.70;;;;;;5058577;28;20040;-60
2023/10/07 13:16:58;;;;;;;16.80;4.53;;;17.60;87.70;;;;;;5060563;28;20028;-60
2023/10/07 13:19:27;;;;;;;15.70;4.15;;;17.60;82.40;;;;;;5057281;28;20043;-60
2023/10/07 13:21:59;;;;;;;13.00;4.47;;;17.60;77.80;;;;;;5063114;28;20079;-60
2023/10/07 13:24:26;;;;;;;14.82;4.45;;;17.60;73.90;;;;;;5063763;28;20393;-60
2023/10/07 13:26:51;;;;;;;16.42;4.82;;;17.60;70.90;;;;;;5063037;28;20044;-60
2023/10/07 13:29:17;;;;;;;13.32;4.38;;;17.60;69.70;;;;;;5064076;28;20037;-60
2023/10/07 13:31:43;;;;;;;16.10;4.88;;;17.50;71.60;;;;;;5069170;28;20043;-60
2023/10/07 13:34:10;;;;;;;16.20;4.93;;;17.60;75.60;;;;;;5065235;28;20098;-59
2023/10/07 13:36:41;;;;;;;13.80;5.07;;;17.50;80.30;;;;;;5052801;28;20025;-59
2023/10/07 13:39:15;;;;;;;19.30;6.30;;;17.50;87.10;;;;;;5060967;28;20076;-60
2023/10/07 13:41:45;;;;;;;12.05;5.40;;;17.50;85.00;;;;;;5063112;28;20040;-60
2023/10/07 13:44:15;;;;;;;15.18;5.25;;;17.50;81.20;;;;;;5063167;28;20115;-60
2023/10/07 13:46:42;;;;;;;13.98;4.57;;;17.50;80.20;;;;;;5061815;28;20116;-60
2023/10/07 13:49:13;;;;;;;12.63;4.80;;;17.40;77.10;;;;;;5062033;28;20079;-59